Time;durP1;ratioP1;P1;durP2;ratioP2;P2;SDS_P1;SDS_P2;PMS_P1;PMS_P2;Temp;Humidity;BMP_temperature;BMP_pressure;BME280_temperature;BME280_humidity;BME280_pressure;Samples;Min_cycle;Max_cycle;Signal;HPM_P1;HPM_P2
2023/06/14 00:01:48;;;;;;;7.27;6.60;;;21.70;45.40;;;;;;5075456;28;20492;-56
2023/06/14 00:04:16;;;;;;;6.50;6.00;;;21.70;45.40;;;;;;5075515;28;20445;-56
2023/06/14 00:06:44;;;;;;;7.27;6.57;;;21.70;46.20;;;;;;5075414;28;20565;-56
2023/06/14 00:09:12;;;;;;;7.23;6.17;;;21.60;45.70;;;;;;5074706;28;20811;-56
2023/06/14 00:11:40;;;;;;;8.17;6.10;;;21.50;45.80;;;;;;5075260;28;20511;-56
2023/06/14 00:14:07;;;;;;;6.60;6.10;;;21.50;46.00;;;;;;5075378;28;20433;-56
2023/06/14 00:16:35;;;;;;;6.17;5.67;;;21.40;46.10;;;;;;5075168;28;20468;-56
2023/06/14 00:19:03;;;;;;;7.63;6.93;;;21.40;46.40;;;;;;5075228;28;20444;-56
2023/06/14 00:21:29;;;;;;;7.30;6.70;;;21.40;46.30;;;;;;5074693;28;20994;-56
2023/06/14 00:23:56;;;;;;;6.47;5.97;;;21.40;46.50;;;;;;5075190;28;20471;-56
2023/06/14 00:26:23;;;;;;;7.53;6.40;;;21.40;46.80;;;;;;5075253;28;20465;-56
2023/06/14 00:28:51;;;;;;;7.17;6.30;;;21.20;46.70;;;;;;5075016;28;20449;-56
2023/06/14 00:31:18;;;;;;;8.50;6.87;;;21.20;46.80;;;;;;5074976;28;20453;-56
2023/06/14 00:33:45;;;;;;;6.37;5.77;;;21.20;46.80;;;;;;5074932;28;20471;-56
2023/06/14 00:36:12;;;;;;;7.13;6.53;;;21.20;47.10;;;;;;5074881;28;20475;-56
2023/06/14 00:38:38;;;;;;;7.13;6.20;;;21.10;47.10;;;;;;5075121;28;20456;-56
2023/06/14 00:41:05;;;;;;;7.57;6.37;;;21.10;47.20;;;;;;5075169;28;20485;-56
2023/06/14 00:43:34;;;;;;;7.40;6.40;;;21.10;47.30;;;;;;5074861;28;20448;-56
2023/06/14 00:46:02;;;;;;;6.33;5.87;;;21.00;47.60;;;;;;5074922;28;20460;-57
2023/06/14 00:48:30;;;;;;;9.03;6.80;;;21.10;47.70;;;;;;5074820;28;20437;-56
2023/06/14 00:50:57;;;;;;;8.07;6.27;;;21.00;47.80;;;;;;5074544;28;20817;-56
2023/06/14 00:53:25;;;;;;;6.30;5.70;;;21.00;48.10;;;;;;5074579;28;20447;-56
2023/06/14 00:55:51;;;;;;;7.97;7.37;;;20.90;48.00;;;;;;5074536;28;20444;-56
2023/06/14 00:58:18;;;;;;;6.90;6.40;;;20.90;48.00;;;;;;5074507;28;20536;-56
2023/06/14 01:00:45;;;;;;;7.30;6.30;;;20.90;48.10;;;;;;5074415;28;20452;-56
2023/06/14 01:03:18;;;;;;;6.50;5.87;;;20.90;48.50;;;;;;5074299;28;20484;-56
2023/06/14 01:05:45;;;;;;;12.10;6.50;;;20.80;48.40;;;;;;5074382;28;20439;-56
2023/06/14 01:08:32;;;;;;;6.73;6.10;;;20.80;48.40;;;;;;5075023;28;20800;-57
2023/06/14 01:11:06;;;;;;;8.23;7.43;;;20.70;48.50;;;;;;5074027;28;20493;-56
2023/06/14 01:13:35;;;;;;;6.90;6.30;;;20.60;48.60;;;;;;5074202;28;20482;-56
2023/06/14 01:16:03;;;;;;;6.80;6.20;;;20.60;48.80;;;;;;5074147;28;20492;-56
2023/06/14 01:18:32;;;;;;;7.53;6.87;;;20.60;48.80;;;;;;5074025;28;20445;-56
2023/06/14 01:20:59;;;;;;;6.13;5.63;;;20.50;49.00;;;;;;5073053;28;20931;-57
2023/06/14 01:23:32;;;;;;;6.73;6.23;;;20.40;49.00;;;;;;5073918;28;20483;-57
2023/06/14 01:25:59;;;;;;;7.93;6.50;;;20.30;49.10;;;;;;5073943;28;20440;-57
2023/06/14 01:28:31;;;;;;;7.73;7.03;;;20.30;49.30;;;;;;5073664;28;20444;-57
2023/06/14 01:31:03;;;;;;;7.40;6.80;;;20.20;49.30;;;;;;5074063;28;20464;-57
2023/06/14 01:33:32;;;;;;;7.27;6.67;;;20.10;49.20;;;;;;5073696;28;20934;-57
2023/06/14 01:36:00;;;;;;;7.90;7.20;;;20.10;49.40;;;;;;5074506;28;20452;-57
2023/06/14 01:38:29;;;;;;;8.23;6.53;;;20.10;49.60;;;;;;5058115;28;20970;-56
2023/06/14 01:40:59;;;;;;;8.07;7.20;;;20.00;49.70;;;;;;5058380;28;20453;-57
2023/06/14 01:43:27;;;;;;;7.40;6.80;;;20.00;49.90;;;;;;5058430;28;20564;-58
2023/06/14 01:45:55;;;;;;;7.50;6.80;;;19.90;49.80;;;;;;5054238;28;20445;-57
2023/06/14 01:48:22;;;;;;;7.50;6.80;;;19.90;50.00;;;;;;5053525;28;20477;-57
2023/06/14 01:50:49;;;;;;;7.63;7.00;;;19.80;50.00;;;;;;5053580;28;20446;-57
2023/06/14 01:53:16;;;;;;;6.97;6.47;;;19.80;50.30;;;;;;5053551;28;20450;-57
2023/06/14 01:55:48;;;;;;;8.37;7.67;;;19.80;50.40;;;;;;5053468;28;20454;-57
2023/06/14 01:58:15;;;;;;;10.30;7.07;;;19.80;50.60;;;;;;5054089;28;20418;-57
2023/06/14 02:00:44;;;;;;;8.73;6.90;;;19.70;50.40;;;;;;5053404;28;20456;-57
2023/06/14 02:03:12;;;;;;;8.03;7.40;;;19.70;50.70;;;;;;5053370;28;20493;-57
2023/06/14 02:05:40;;;;;;;7.43;6.83;;;19.60;51.20;;;;;;5053401;28;20449;-57
2023/06/14 02:08:07;;;;;;;10.10;7.17;;;19.50;50.70;;;;;;5053264;28;20499;-57
2023/06/14 02:10:33;;;;;;;6.97;6.40;;;19.40;50.70;;;;;;5053505;28;20449;-57
2023/06/14 02:13:02;;;;;;;8.47;6.37;;;19.40;50.80;;;;;;5053185;28;20468;-57
2023/06/14 02:15:33;;;;;;;9.57;6.80;;;19.30;51.00;;;;;;5054037;28;20528;-57
2023/06/14 02:18:01;;;;;;;7.13;6.63;;;19.30;51.20;;;;;;5052811;28;20987;-57
2023/06/14 02:20:28;;;;;;;8.13;7.43;;;19.20;51.30;;;;;;5053101;28;20445;-57
2023/06/14 02:22:55;;;;;;;8.67;7.87;;;19.20;51.50;;;;;;5053660;28;20477;-57
2023/06/14 02:25:22;;;;;;;7.17;6.60;;;19.10;51.50;;;;;;5052922;28;20965;-57
2023/06/14 02:27:48;;;;;;;7.30;6.70;;;19.10;51.70;;;;;;5053047;28;20464;-57
2023/06/14 02:30:17;;;;;;;8.60;7.80;;;19.00;51.80;;;;;;5053354;28;20441;-57
2023/06/14 02:32:44;;;;;;;7.47;6.77;;;19.00;52.00;;;;;;5056653;28;20437;-57
2023/06/14 02:35:10;;;;;;;8.53;7.73;;;18.90;52.00;;;;;;5056906;28;20958;-57
2023/06/14 02:37:37;;;;;;;7.10;6.40;;;18.90;52.30;;;;;;5057071;28;20530;-57
2023/06/14 02:40:05;;;;;;;8.50;7.70;;;18.90;52.30;;;;;;5057157;28;20445;-57
2023/06/14 02:42:32;;;;;;;7.97;7.17;;;18.80;52.40;;;;;;5057033;28;20481;-57
2023/06/14 02:44:59;;;;;;;14.47;7.37;;;18.80;52.40;;;;;;5056890;28;20445;-57
2023/06/14 02:47:27;;;;;;;10.50;7.80;;;18.70;52.50;;;;;;5057253;28;20469;-57
2023/06/14 02:49:54;;;;;;;7.20;6.50;;;18.70;52.70;;;;;;5056518;28;20907;-57
2023/06/14 02:52:21;;;;;;;9.03;8.20;;;18.70;52.80;;;;;;5057038;28;20445;-56
2023/06/14 02:54:48;;;;;;;9.50;7.17;;;18.60;52.80;;;;;;5057048;28;20475;-57
2023/06/14 02:57:15;;;;;;;8.73;8.00;;;18.60;52.90;;;;;;5056949;28;20556;-57
2023/06/14 02:59:42;;;;;;;7.87;7.07;;;18.60;53.00;;;;;;5056802;28;20449;-57
2023/06/14 03:02:08;;;;;;;8.20;7.33;;;18.60;53.00;;;;;;5056598;28;20448;-57
2023/06/14 03:04:38;;;;;;;10.50;8.10;;;18.60;53.10;;;;;;5056768;28;20464;-57
2023/06/14 03:07:09;;;;;;;8.67;7.93;;;18.60;53.10;;;;;;5056583;28;20474;-57
2023/06/14 03:09:36;;;;;;;7.77;7.07;;;18.50;53.20;;;;;;5056695;28;20437;-56
2023/06/14 03:12:03;;;;;;;8.30;7.60;;;18.50;53.40;;;;;;5056401;28;20522;-57
2023/06/14 03:14:30;;;;;;;7.97;7.23;;;18.50;53.50;;;;;;5056460;28;20453;-57
2023/06/14 03:16:58;;;;;;;7.90;7.30;;;18.50;53.60;;;;;;5056280;28;20515;-57
2023/06/14 03:19:26;;;;;;;8.33;7.53;;;18.40;53.70;;;;;;5055908;28;20453;-57
2023/06/14 03:21:56;;;;;;;8.20;7.50;;;18.40;53.90;;;;;;5056339;28;20499;-57
2023/06/14 03:24:23;;;;;;;8.33;7.53;;;18.40;53.90;;;;;;5056300;28;20556;-57
2023/06/14 03:26:50;;;;;;;8.73;7.87;;;18.40;54.00;;;;;;5056183;28;20461;-57
2023/06/14 03:29:17;;;;;;;8.67;7.80;;;18.40;54.10;;;;;;5056194;28;20449;-56
2023/06/14 03:31:58;;;;;;;7.33;6.73;;;18.30;54.10;;;;;;5056160;28;20796;-57
2023/06/14 03:34:25;;;;;;;8.17;7.47;;;18.40;54.40;;;;;;5056162;28;20433;-57
2023/06/14 03:36:51;;;;;;;7.57;6.87;;;18.40;54.50;;;;;;5055888;28;20469;-57
2023/06/14 03:39:20;;;;;;;8.43;7.73;;;18.30;54.70;;;;;;5056281;28;20801;-56
2023/06/14 03:41:46;;;;;;;8.13;7.17;;;18.30;54.70;;;;;;5055974;28;20449;-57
2023/06/14 03:44:15;;;;;;;8.73;7.30;;;18.30;54.90;;;;;;5055039;28;20484;-57
2023/06/14 03:46:42;;;;;;;8.50;7.70;;;18.30;55.00;;;;;;5055947;28;20473;-57
2023/06/14 03:49:08;;;;;;;8.13;7.33;;;18.30;55.00;;;;;;5055498;28;20452;-57
2023/06/14 03:51:35;;;;;;;7.87;7.17;;;18.30;55.00;;;;;;5055671;28;20445;-57
2023/06/14 03:54:02;;;;;;;7.47;6.87;;;18.30;55.10;;;;;;5055814;28;20441;-57
2023/06/14 03:56:30;;;;;;;7.80;6.97;;;18.20;55.10;;;;;;5055409;28;20477;-57
2023/06/14 03:58:57;;;;;;;9.73;7.37;;;18.10;55.20;;;;;;5055957;28;20832;-56
2023/06/14 04:01:29;;;;;;;7.67;7.07;;;18.10;55.10;;;;;;5056129;28;20445;-56
2023/06/14 04:03:57;;;;;;;7.20;6.60;;;18.00;55.00;;;;;;5055893;28;20975;-57
2023/06/14 04:06:24;;;;;;;7.13;6.50;;;18.00;55.00;;;;;;5055632;28;21036;-57
2023/06/14 04:08:53;;;;;;;8.13;7.33;;;18.00;55.20;;;;;;5055571;28;20540;-57
2023/06/14 04:11:20;;;;;;;7.47;6.67;;;17.90;55.20;;;;;;5055349;28;20512;-57
2023/06/14 04:13:48;;;;;;;8.57;7.67;;;17.90;55.40;;;;;;5055728;28;20429;-57
2023/06/14 04:16:15;;;;;;;8.10;7.40;;;17.90;55.70;;;;;;5055195;28;20465;-57
2023/06/14 04:18:41;;;;;;;10.70;8.47;;;17.90;55.80;;;;;;5055231;28;20807;-57
2023/06/14 04:21:08;;;;;;;12.70;7.90;;;17.90;56.00;;;;;;5055408;28;20457;-57
2023/06/14 04:23:35;;;;;;;9.33;7.30;;;17.90;56.00;;;;;;5055140;28;20478;-57
2023/06/14 04:26:02;;;;;;;10.20;7.93;;;17.90;56.00;;;;;;5055814;28;20477;-57
2023/06/14 04:28:29;;;;;;;8.87;8.07;;;17.90;56.10;;;;;;5055074;28;20450;-57
2023/06/14 04:31:01;;;;;;;8.20;7.53;;;17.90;56.40;;;;;;5054985;28;20483;-57
2023/06/14 04:33:28;;;;;;;8.50;7.70;;;18.00;56.50;;;;;;5054956;28;20441;-57
2023/06/14 04:35:56;;;;;;;9.13;8.33;;;18.00;56.70;;;;;;5054729;28;20850;-57
2023/06/14 04:38:25;;;;;;;8.33;7.63;;;18.10;57.40;;;;;;5068532;28;20461;-57
2023/06/14 04:40:52;;;;;;;9.03;8.13;;;18.10;56.90;;;;;;5074835;28;20444;-57
2023/06/14 04:43:25;;;;;;;10.67;7.70;;;18.10;57.20;;;;;;5074767;28;20538;-57
2023/06/14 04:45:54;;;;;;;10.77;8.57;;;18.10;57.40;;;;;;5074839;28;20437;-57
2023/06/14 04:48:22;;;;;;;10.10;8.37;;;18.20;57.60;;;;;;5074713;28;20459;-57
2023/06/14 04:50:52;;;;;;;11.70;8.57;;;18.20;58.00;;;;;;5074352;28;20544;-57
2023/06/14 04:53:21;;;;;;;8.83;8.03;;;18.20;58.00;;;;;;5075330;28;20506;-57
2023/06/14 04:55:48;;;;;;;7.90;7.20;;;18.30;58.10;;;;;;5073601;28;20453;-57
2023/06/14 04:58:14;;;;;;;10.20;7.77;;;18.40;58.40;;;;;;5074291;28;20448;-57
2023/06/14 05:00:43;;;;;;;8.53;7.73;;;18.50;58.50;;;;;;5074391;28;20463;-57
2023/06/14 05:03:12;;;;;;;8.43;7.63;;;18.60;58.50;;;;;;5074365;28;20469;-57
2023/06/14 05:05:41;;;;;;;10.40;8.40;;;18.60;58.50;;;;;;5074373;28;20440;-57
2023/06/14 05:08:08;;;;;;;12.43;8.73;;;18.70;58.60;;;;;;5073962;28;20942;-57
2023/06/14 05:10:36;;;;;;;8.70;7.90;;;18.80;58.90;;;;;;5074251;28;20457;-57
2023/06/14 05:13:03;;;;;;;9.00;8.10;;;18.90;59.10;;;;;;5073923;28;20943;-57
2023/06/14 05:15:30;;;;;;;12.47;7.50;;;19.00;59.40;;;;;;5073653;28;20441;-57
2023/06/14 05:17:56;;;;;;;11.77;7.93;;;19.10;59.20;;;;;;5073694;28;20468;-57
2023/06/14 05:20:24;;;;;;;8.20;7.40;;;19.20;59.00;;;;;;5074194;28;20463;-57
2023/06/14 05:22:53;;;;;;;8.13;7.33;;;19.30;58.50;;;;;;5073591;28;20954;-57
2023/06/14 05:25:20;;;;;;;9.80;7.43;;;19.30;58.50;;;;;;5074463;28;20452;-57
2023/06/14 05:27:47;;;;;;;8.20;7.40;;;19.50;58.60;;;;;;5073365;28;20839;-57
2023/06/14 05:30:15;;;;;;;8.40;6.60;;;19.60;58.70;;;;;;5073855;28;20472;-57
2023/06/14 05:32:41;;;;;;;7.47;6.63;;;19.60;58.20;;;;;;5073857;28;20452;-57
2023/06/14 05:35:09;;;;;;;8.40;6.47;;;19.70;58.30;;;;;;5073566;28;20943;-57
2023/06/14 05:37:35;;;;;;;7.80;6.50;;;19.80;58.30;;;;;;5073394;28;20471;-57
2023/06/14 05:40:06;;;;;;;7.07;6.47;;;19.90;58.30;;;;;;5073825;28;20448;-57
2023/06/14 05:42:32;;;;;;;6.83;6.23;;;20.00;57.90;;;;;;5073337;28;20804;-57
2023/06/14 05:44:59;;;;;;;7.60;6.43;;;20.10;57.40;;;;;;5073034;28;20487;-57
2023/06/14 05:47:27;;;;;;;8.53;7.00;;;20.20;57.00;;;;;;5073494;28;20472;-57
2023/06/14 05:49:54;;;;;;;9.00;6.57;;;20.30;56.20;;;;;;5073583;28;20444;-57
2023/06/14 05:52:21;;;;;;;8.93;6.63;;;20.40;56.40;;;;;;5073452;28;20459;-57
2023/06/14 05:54:48;;;;;;;11.53;6.67;;;20.50;56.30;;;;;;5073855;28;20441;-57
2023/06/14 05:57:16;;;;;;;7.63;6.87;;;20.60;56.10;;;;;;5073268;28;20468;-57
2023/06/14 05:59:43;;;;;;;9.17;6.87;;;20.70;55.70;;;;;;5072800;28;20970;-57
2023/06/14 06:02:09;;;;;;;9.57;7.40;;;20.80;55.20;;;;;;5073373;28;20523;-57
2023/06/14 06:04:36;;;;;;;8.47;6.43;;;20.90;55.20;;;;;;5073282;28;20487;-57
2023/06/14 06:07:03;;;;;;;6.97;6.37;;;21.10;55.00;;;;;;5072710;28;20476;-57
2023/06/14 06:09:30;;;;;;;6.90;6.17;;;21.20;55.10;;;;;;5073314;28;20456;-57
2023/06/14 06:11:57;;;;;;;7.77;6.50;;;21.30;54.60;;;;;;5072813;28;20453;-57
2023/06/14 06:14:25;;;;;;;7.07;6.37;;;21.40;54.60;;;;;;5073501;28;20453;-57
2023/06/14 06:16:53;;;;;;;6.63;5.23;;;21.50;53.90;;;;;;5073192;28;20471;-57
2023/06/14 06:19:19;;;;;;;7.40;5.50;;;21.70;53.90;;;;;;5073220;28;20460;-57
2023/06/14 06:21:46;;;;;;;6.87;5.70;;;21.80;53.50;;;;;;5072848;28;20830;-57
2023/06/14 06:24:13;;;;;;;5.10;4.60;;;21.90;51.80;;;;;;5072813;28;20480;-57
2023/06/14 06:26:40;;;;;;;6.90;5.40;;;22.10;50.10;;;;;;5073461;28;20464;-57
2023/06/14 06:29:06;;;;;;;8.00;5.30;;;22.20;49.30;;;;;;5072779;28;21009;-57
2023/06/14 06:31:35;;;;;;;5.33;4.87;;;22.30;49.00;;;;;;5073123;28;20445;-57
2023/06/14 06:34:02;;;;;;;5.80;5.10;;;22.50;48.30;;;;;;5073070;28;20443;-57
2023/06/14 06:36:29;;;;;;;5.20;4.80;;;22.60;47.20;;;;;;5072947;28;20507;-57
2023/06/14 06:38:56;;;;;;;4.33;3.77;;;22.70;46.50;;;;;;5073058;28;20467;-57
2023/06/14 06:41:22;;;;;;;6.03;4.00;;;22.90;45.60;;;;;;5073343;28;20444;-57
2023/06/14 06:43:50;;;;;;;4.50;4.03;;;23.00;45.00;;;;;;5072926;28;20476;-57
2023/06/14 06:46:18;;;;;;;4.50;4.10;;;23.20;44.50;;;;;;5072965;28;20519;-57
2023/06/14 06:48:46;;;;;;;8.50;4.23;;;23.30;44.20;;;;;;5073028;28;20452;-57
2023/06/14 06:51:13;;;;;;;5.03;4.40;;;23.40;44.00;;;;;;5072842;28;20441;-56
2023/06/14 06:53:40;;;;;;;8.13;4.77;;;23.60;43.40;;;;;;5073187;28;20518;-57
2023/06/14 06:56:07;;;;;;;5.90;4.73;;;23.80;43.50;;;;;;5072845;28;20469;-57
2023/06/14 06:58:33;;;;;;;6.53;4.10;;;23.90;43.40;;;;;;5072878;28;20543;-57
2023/06/14 07:01:00;;;;;;;4.57;4.17;;;24.10;43.10;;;;;;5072911;28;20451;-57
2023/06/14 07:03:27;;;;;;;4.97;3.83;;;24.30;42.60;;;;;;5072829;28;20464;-55
2023/06/14 07:05:55;;;;;;;4.13;3.83;;;24.50;42.80;;;;;;5072682;28;20934;-56
2023/06/14 07:08:22;;;;;;;6.43;4.73;;;24.60;42.10;;;;;;5073524;28;20444;-56
2023/06/14 07:10:49;;;;;;;6.17;4.87;;;24.80;41.60;;;;;;5073040;28;20459;-57
2023/06/14 07:13:16;;;;;;;4.93;3.90;;;25.00;41.20;;;;;;5072870;28;20920;-55
2023/06/14 07:15:42;;;;;;;7.70;3.77;;;25.10;41.00;;;;;;5073136;28;20444;-56
2023/06/14 07:18:09;;;;;;;4.37;3.97;;;25.30;40.20;;;;;;5073575;28;20440;-56
2023/06/14 07:20:38;;;;;;;5.43;3.97;;;25.50;39.10;;;;;;5076740;28;20445;-56
2023/06/14 07:23:06;;;;;;;3.30;2.80;;;25.60;38.90;;;;;;5076340;28;20801;-56
2023/06/14 07:25:33;;;;;;;4.73;3.40;;;25.80;38.50;;;;;;5076037;28;20877;-56
2023/06/14 07:27:59;;;;;;;4.00;3.60;;;25.90;37.70;;;;;;5076271;28;20487;-56
2023/06/14 07:30:26;;;;;;;6.17;4.23;;;26.10;37.40;;;;;;5076201;28;20452;-56
2023/06/14 07:32:54;;;;;;;4.50;3.63;;;26.20;37.10;;;;;;5076192;28;20502;-56
2023/06/14 07:35:21;;;;;;;7.23;3.70;;;26.40;37.10;;;;;;5076074;28;20489;-56
2023/06/14 07:37:47;;;;;;;4.73;3.90;;;26.50;36.70;;;;;;5065764;28;21056;-56
2023/06/14 07:40:16;;;;;;;7.03;4.10;;;26.70;36.20;;;;;;5056178;28;20453;-56
2023/06/14 07:42:43;;;;;;;6.20;3.60;;;26.80;35.70;;;;;;5056048;28;20454;-56
2023/06/14 07:45:13;;;;;;;6.03;3.47;;;27.00;35.70;;;;;;5055670;28;20480;-56
2023/06/14 07:47:40;;;;;;;4.47;3.77;;;27.20;35.60;;;;;;5055855;28;20469;-56
2023/06/14 07:50:08;;;;;;;4.00;3.30;;;27.40;35.40;;;;;;5055692;28;20442;-56
2023/06/14 07:52:34;;;;;;;4.50;3.53;;;27.60;35.20;;;;;;5055839;28;20441;-56
2023/06/14 07:55:01;;;;;;;7.80;3.60;;;27.80;34.80;;;;;;5055776;28;20446;-56
2023/06/14 07:57:29;;;;;;;4.00;3.70;;;28.10;34.30;;;;;;5055666;28;20466;-56
2023/06/14 07:59:56;;;;;;;5.40;3.50;;;28.30;33.70;;;;;;5055217;28;20800;-56
2023/06/14 08:02:22;;;;;;;4.53;2.80;;;28.50;33.20;;;;;;5055751;28;20463;-56
2023/06/14 08:04:49;;;;;;;3.10;2.87;;;28.60;32.40;;;;;;5055529;28;20477;-56
2023/06/14 08:07:16;;;;;;;2.73;2.53;;;28.80;32.30;;;;;;5055404;28;20473;-56
2023/06/14 08:09:43;;;;;;;5.20;2.47;;;28.90;32.30;;;;;;5055526;28;20461;-56
2023/06/14 08:12:10;;;;;;;2.97;2.67;;;29.20;32.40;;;;;;5055127;28;20483;-56
2023/06/14 08:14:39;;;;;;;2.87;2.67;;;29.30;31.70;;;;;;5055029;28;20935;-56
2023/06/14 08:17:06;;;;;;;3.27;2.60;;;29.40;30.50;;;;;;5055512;28;20474;-56
2023/06/14 08:19:33;;;;;;;3.90;2.17;;;29.50;29.70;;;;;;5055132;28;20449;-56
2023/06/14 08:22:01;;;;;;;2.13;2.03;;;29.60;29.60;;;;;;5055726;28;20453;-56
2023/06/14 08:24:28;;;;;;;2.13;1.97;;;29.70;29.30;;;;;;5054921;28;21025;-56
2023/06/14 08:26:56;;;;;;;2.40;2.30;;;29.90;29.20;;;;;;5055200;28;20466;-56
2023/06/14 08:29:22;;;;;;;2.63;2.20;;;30.10;28.70;;;;;;5054514;28;20940;-56
2023/06/14 08:31:50;;;;;;;3.50;1.90;;;30.30;28.70;;;;;;5055429;28;20457;-56
2023/06/14 08:34:17;;;;;;;2.70;1.90;;;30.40;27.80;;;;;;5055043;28;20468;-56
2023/06/14 08:36:44;;;;;;;2.33;1.93;;;30.60;27.00;;;;;;5054851;28;20465;-56
2023/06/14 08:39:11;;;;;;;2.00;1.80;;;30.70;26.70;;;;;;5054841;28;20445;-56
2023/06/14 08:41:38;;;;;;;2.00;1.90;;;30.80;25.60;;;;;;5054979;28;20468;-56
2023/06/14 08:44:07;;;;;;;5.03;2.00;;;30.80;25.50;;;;;;5054463;28;20994;-56
2023/06/14 08:46:34;;;;;;;1.93;1.83;;;30.90;25.80;;;;;;5054721;28;20474;-56
2023/06/14 08:49:04;;;;;;;2.90;2.23;;;31.00;25.90;;;;;;5054755;28;20504;-56
2023/06/14 08:51:34;;;;;;;2.10;1.63;;;31.10;25.30;;;;;;5054880;28;20449;-56
2023/06/14 08:54:01;;;;;;;4.43;2.20;;;31.20;25.30;;;;;;5054634;28;20526;-56
2023/06/14 08:56:29;;;;;;;3.47;1.97;;;31.40;25.50;;;;;;5054410;28;20469;-56
2023/06/14 08:59:01;;;;;;;2.10;1.90;;;31.60;25.90;;;;;;5054194;28;20491;-56
2023/06/14 09:01:27;;;;;;;2.40;2.20;;;31.70;25.00;;;;;;5054443;28;20433;-56
2023/06/14 09:03:57;;;;;;;2.77;1.90;;;31.80;25.40;;;;;;5054347;28;20535;-56
2023/06/14 09:06:25;;;;;;;2.70;2.50;;;32.00;25.50;;;;;;5053956;28;20844;-57
2023/06/14 09:08:52;;;;;;;5.70;1.90;;;32.10;24.90;;;;;;5054352;28;20448;-56
2023/06/14 09:11:19;;;;;;;2.83;1.67;;;32.20;24.20;;;;;;5054089;28;20453;-56
2023/06/14 09:13:47;;;;;;;2.40;2.17;;;32.40;23.90;;;;;;5054368;28;20433;-56
2023/06/14 09:16:14;;;;;;;2.63;2.10;;;32.40;24.20;;;;;;5054171;28;20461;-56
2023/06/14 09:18:44;;;;;;;4.77;2.30;;;32.60;24.70;;;;;;5054136;28;20455;-56
2023/06/14 09:21:12;;;;;;;3.03;2.27;;;32.80;24.60;;;;;;5054005;28;20524;-56
2023/06/14 09:23:41;;;;;;;2.03;1.93;;;32.80;24.20;;;;;;5054028;28;20448;-56
2023/06/14 09:26:09;;;;;;;3.60;2.20;;;33.00;23.70;;;;;;5054043;28;20481;-56
2023/06/14 09:28:36;;;;;;;3.63;2.00;;;33.10;23.30;;;;;;5055893;28;20544;-57
2023/06/14 09:31:03;;;;;;;4.47;2.23;;;33.30;23.50;;;;;;5055913;28;20456;-57
2023/06/14 09:33:31;;;;;;;4.20;2.07;;;33.40;24.00;;;;;;5054756;28;20452;-56
2023/06/14 09:35:58;;;;;;;2.43;1.97;;;33.50;24.20;;;;;;5054078;28;20456;-56
2023/06/14 09:38:26;;;;;;;2.10;1.83;;;33.70;24.60;;;;;;5053763;28;20440;-56
2023/06/14 09:40:57;;;;;;;5.30;2.37;;;33.80;24.40;;;;;;5053185;28;20453;-56
2023/06/14 09:43:26;;;;;;;1.63;1.53;;;34.10;24.10;;;;;;5053453;28;20461;-56
2023/06/14 09:45:53;;;;;;;3.00;2.70;;;34.30;24.20;;;;;;5053250;28;21014;-57
2023/06/14 09:48:19;;;;;;;2.30;1.90;;;34.50;24.30;;;;;;5053206;28;20953;-56
2023/06/14 09:50:48;;;;;;;4.13;1.93;;;34.70;23.60;;;;;;5053420;28;20459;-56
2023/06/14 09:53:16;;;;;;;14.93;2.63;;;34.80;23.10;;;;;;5053674;28;20456;-57
2023/06/14 09:55:43;;;;;;;2.97;2.67;;;34.90;22.40;;;;;;5053430;28;20444;-56
2023/06/14 09:58:12;;;;;;;3.87;2.10;;;35.00;22.30;;;;;;5053091;28;20828;-57
2023/06/14 10:00:40;;;;;;;2.23;2.00;;;35.20;22.40;;;;;;5053099;28;20973;-56
2023/06/14 10:03:13;;;;;;;4.80;2.13;;;35.30;22.20;;;;;;5053074;28;20449;-56
2023/06/14 10:05:44;;;;;;;3.83;2.00;;;35.50;22.80;;;;;;5053513;28;20465;-57
2023/06/14 10:08:16;;;;;;;2.03;1.70;;;35.70;22.70;;;;;;5053721;28;20429;-56
2023/06/14 10:10:44;;;;;;;3.00;1.90;;;36.00;22.10;;;;;;5053257;28;20433;-57
2023/06/14 10:13:13;;;;;;;6.83;2.10;;;36.20;22.60;;;;;;5052884;28;20463;-57
2023/06/14 10:15:48;;;;;;;2.87;2.27;;;36.50;22.30;;;;;;5053209;28;20437;-57
2023/06/14 10:18:23;;;;;;;2.53;1.93;;;36.80;22.20;;;;;;5053286;28;20182;-57
2023/06/14 10:20:59;;;;;;;3.33;1.80;;;37.10;22.10;;;;;;5053588;28;20186;-57
2023/06/14 10:23:27;;;;;;;2.90;2.00;;;37.40;22.10;;;;;;5053402;28;20186;-57
2023/06/14 10:25:59;;;;;;;2.90;1.73;;;37.70;21.40;;;;;;5053923;28;20727;-56
2023/06/14 10:28:30;;;;;;;6.68;1.80;;;38.00;21.10;;;;;;5053635;28;20183;-57
2023/06/14 10:31:04;;;;;;;3.50;1.85;;;38.30;20.30;;;;;;5053484;28;20190;-57
2023/06/14 10:33:31;;;;;;;2.35;1.70;;;38.60;19.90;;;;;;5053407;28;20206;-56
2023/06/14 10:36:27;;;;;;;2.15;1.92;;;38.90;20.00;;;;;;5053033;28;20199;-57
2023/06/14 10:39:02;;;;;;;2.92;1.90;;;39.30;19.20;;;;;;5046991;28;20585;-57
2023/06/14 10:41:29;;;;;;;3.15;2.05;;;39.60;18.80;;;;;;5072887;28;20557;-57
2023/06/14 10:44:39;;;;;;;2.75;2.00;;;40.00;18.90;;;;;;5073218;28;20210;-57
2023/06/14 10:47:11;;;;;;;2.85;1.90;;;40.40;17.60;;;;;;5057264;28;20221;-57
2023/06/14 10:49:41;;;;;;;3.22;1.85;;;40.80;17.70;;;;;;5073065;28;20226;-57
2023/06/14 10:52:16;;;;;;;2.25;1.80;;;41.20;17.40;;;;;;5074624;28;20201;-57
2023/06/14 10:54:57;;;;;;;2.25;1.65;;;41.60;16.60;;;;;;5077045;28;20188;-57
2023/06/14 10:57:24;;;;;;;2.17;1.80;;;42.20;16.70;;;;;;5076612;28;20719;-57
2023/06/14 10:59:51;;;;;;;1.63;1.42;;;42.60;15.50;;;;;;5076567;28;20205;-57
2023/06/14 11:02:58;;;;;;;2.92;1.70;;;42.90;15.70;;;;;;5076471;28;20209;-57
2023/06/14 11:05:27;;;;;;;1.77;1.63;;;43.30;15.20;;;;;;5076730;28;20217;-57
2023/06/14 11:08:11;;;;;;;5.00;2.20;;;43.70;15.40;;;;;;5076554;28;20260;-57
2023/06/14 11:10:39;;;;;;;2.30;1.83;;;43.90;14.60;;;;;;5076677;28;20268;-57
2023/06/14 11:13:06;;;;;;;1.95;1.67;;;44.10;14.40;;;;;;5077101;28;20709;-57
2023/06/14 11:15:34;;;;;;;1.65;1.48;;;44.50;14.70;;;;;;5076597;28;20232;-57
2023/06/14 11:18:03;;;;;;;1.90;1.80;;;44.70;13.90;;;;;;5076436;28;20252;-57
2023/06/14 11:20:32;;;;;;;2.33;1.70;;;45.10;14.10;;;;;;5076275;28;20198;-57
2023/06/14 11:22:59;;;;;;;2.83;1.63;;;45.30;12.90;;;;;;5076438;28;20228;-57
2023/06/14 11:25:27;;;;;;;2.08;1.67;;;45.50;12.90;;;;;;5076310;28;20222;-57
2023/06/14 11:27:55;;;;;;;1.63;1.52;;;45.50;13.30;;;;;;5076480;28;20221;-57
2023/06/14 11:30:22;;;;;;;2.08;1.50;;;45.80;13.50;;;;;;5076079;28;20683;-57
2023/06/14 11:32:50;;;;;;;2.00;1.50;;;46.00;13.70;;;;;;5076257;28;20209;-57
2023/06/14 11:35:18;;;;;;;2.22;1.65;;;46.20;13.10;;;;;;5076350;28;20672;-57
2023/06/14 11:37:47;;;;;;;3.17;2.05;;;46.40;13.00;;;;;;5075884;28;20228;-57
2023/06/14 11:40:14;;;;;;;1.60;1.50;;;46.60;12.90;;;;;;5076116;28;20233;-57
2023/06/14 11:42:42;;;;;;;3.08;1.60;;;46.90;13.10;;;;;;5076078;28;20198;-56
2023/06/14 11:45:10;;;;;;;3.35;1.45;;;47.10;13.10;;;;;;5075924;28;20218;-56
2023/06/14 11:47:37;;;;;;;2.38;1.33;;;47.30;12.50;;;;;;5076150;28;20222;-57
2023/06/14 11:50:06;;;;;;;4.00;1.75;;;47.40;12.80;;;;;;5075767;28;20208;-57
2023/06/14 11:52:34;;;;;;;2.10;1.55;;;47.50;12.70;;;;;;5075855;28;20280;-56
2023/06/14 11:55:04;;;;;;;1.65;1.55;;;47.70;12.40;;;;;;5076009;28;20198;-57
2023/06/14 11:57:31;;;;;;;6.10;1.60;;;47.80;12.50;;;;;;5075623;28;20230;-57
2023/06/14 11:59:58;;;;;;;2.65;1.48;;;47.90;12.30;;;;;;5075657;28;20580;-57
2023/06/14 12:02:27;;;;;;;1.95;1.75;;;48.10;12.60;;;;;;5075616;28;20202;-57
2023/06/14 12:04:55;;;;;;;3.88;1.70;;;48.20;12.30;;;;;;5074547;28;20612;-57
2023/06/14 12:07:23;;;;;;;2.28;1.52;;;48.30;12.20;;;;;;5075457;28;20241;-58
2023/06/14 12:10:08;;;;;;;5.40;1.73;;;48.40;12.80;;;;;;5075147;28;20695;-58
2023/06/14 12:12:38;;;;;;;3.50;1.67;;;48.60;12.60;;;;;;5075359;28;20259;-58
2023/06/14 12:15:06;;;;;;;2.13;1.60;;;48.80;12.50;;;;;;5075168;28;20603;-58
2023/06/14 12:17:34;;;;;;;2.03;1.50;;;49.00;12.40;;;;;;5075242;28;20247;-58
2023/06/14 12:20:09;;;;;;;2.10;1.90;;;49.10;11.50;;;;;;5075222;28;20205;-58
2023/06/14 12:22:36;;;;;;;3.15;1.80;;;49.20;11.90;;;;;;5076089;28;20190;-58
2023/06/14 12:25:03;;;;;;;3.58;1.60;;;49.30;12.10;;;;;;5075230;28;20221;-58
2023/06/14 12:27:31;;;;;;;2.05;1.33;;;49.50;11.70;;;;;;5075035;28;20229;-58
2023/06/14 12:30:02;;;;;;;2.70;1.60;;;49.70;11.40;;;;;;5075093;28;20210;-58
2023/06/14 12:32:29;;;;;;;3.28;1.80;;;49.90;11.50;;;;;;5075169;28;20210;-58
2023/06/14 12:34:56;;;;;;;4.85;2.03;;;50.10;11.10;;;;;;5075028;28;20202;-58
2023/06/14 12:37:23;;;;;;;3.03;1.65;;;50.20;11.20;;;;;;5074854;28;20218;-58
2023/06/14 12:39:50;;;;;;;1.70;1.30;;;50.30;11.10;;;;;;5075153;28;20202;-58
2023/06/14 12:42:18;;;;;;;2.70;1.50;;;50.40;11.00;;;;;;5074870;28;20221;-58
2023/06/14 12:44:46;;;;;;;1.70;1.58;;;50.40;10.80;;;;;;5074743;28;20205;-57
2023/06/14 12:47:13;;;;;;;2.85;1.30;;;50.40;10.90;;;;;;5074772;28;20230;-57
2023/06/14 12:49:41;;;;;;;1.30;1.20;;;50.40;11.10;;;;;;5074690;28;20288;-57
2023/06/14 12:52:08;;;;;;;2.72;1.38;;;50.50;10.90;;;;;;5074875;28;20236;-57